Terminal Aerodrome Forecast
Issued by NWS

Home | Current Version | Previous Version | Text Only | Print | Product List | Glossary On
Versions: 1 2 3 4 5 6 7 8 9 10 11 12 13 14 15 16 17 18 19 20 21 22
000
FTUS44 KBMX 271003 AAA
TAFANB
TAF AMD
KANB 271003Z 2710/2806 08003KT P6SM SCT015 BKN250
      TEMPO 2710/2713 BKN015
     FM271600 09006KT P6SM VCSH BKN050 PROB30 2720/2724 TSRA
      BKN050CB
     FM280100 07003KT P6SM VCSH BKN080=

USA.gov is the U.S. government's official web portal to all federal, state and local government web resources and services.